Time;durP1;ratioP1;P1;durP2;ratioP2;P2;SDS_P1;SDS_P2;PMS_P1;PMS_P2;Temp;Humidity;BMP_temperature;BMP_pressure;BME280_temperature;BME280_humidity;BME280_pressure;Samples;Min_cycle;Max_cycle;Signal;HPM_P1;HPM_P2
2023/10/08 00:00:49;;;;;;;3.53;1.67;;;;;;;16.71;100.00;97094.63;5039563;28;20212;-67
2023/10/08 00:03:17;;;;;;;4.90;1.88;;;;;;;16.65;100.00;97084.78;5039392;28;20233;-68
2023/10/08 00:05:45;;;;;;;2.47;1.65;;;;;;;16.58;100.00;97092.69;5039435;28;20237;-68
2023/10/08 00:08:14;;;;;;;4.57;1.98;;;;;;;16.57;100.00;97084.91;5038629;28;20212;-67
2023/10/08 00:10:42;;;;;;;4.65;1.90;;;;;;;16.60;100.00;97089.84;5039528;28;20284;-68
2023/10/08 00:13:09;;;;;;;3.22;1.38;;;;;;;16.50;100.00;97094.69;5038905;28;20217;-68
2023/10/08 00:15:37;;;;;;;4.93;1.88;;;;;;;16.56;100.00;97096.59;5038694;28;20220;-68
2023/10/08 00:18:06;;;;;;;4.72;2.10;;;;;;;16.68;100.00;97095.03;5038889;28;20262;-68
2023/10/08 00:20:42;;;;;;;3.40;1.60;;;;;;;16.61;100.00;97091.47;5039225;28;20205;-68
2023/10/08 00:23:09;;;;;;;4.18;2.00;;;;;;;16.59;100.00;97090.88;5038648;28;21242;-68
2023/10/08 00:25:40;;;;;;;3.90;1.75;;;;;;;16.64;100.00;97097.25;5038910;28;20251;-68
2023/10/08 00:28:10;;;;;;;5.25;1.98;;;;;;;16.73;100.00;97081.97;5039051;28;20233;-68
2023/10/08 00:30:38;;;;;;;5.72;2.40;;;;;;;16.66;100.00;97081.09;5038662;28;20291;-68
2023/10/08 00:33:08;;;;;;;3.63;2.00;;;;;;;16.74;100.00;97083.63;5038619;28;20225;-68
2023/10/08 00:35:38;;;;;;;4.80;1.90;;;;;;;16.73;100.00;97081.97;5039101;28;20209;-68
2023/10/08 00:38:14;;;;;;;4.43;1.90;;;;;;;16.65;100.00;97077.59;5037987;28;20212;-68
2023/10/08 00:40:44;;;;;;;3.67;2.33;;;;;;;16.64;100.00;97077.81;5038826;28;20204;-68
2023/10/08 00:43:12;;;;;;;4.50;1.90;;;;;;;16.72;100.00;97077.66;5039398;28;20294;-68
2023/10/08 00:45:43;;;;;;;6.70;2.35;;;;;;;16.88;100.00;97072.00;5039074;28;20205;-68
2023/10/08 00:48:16;;;;;;;4.40;2.30;;;;;;;16.85;100.00;97075.91;5037970;28;20232;-68
2023/10/08 00:50:43;;;;;;;4.47;1.73;;;;;;;16.94;100.00;97073.91;5037879;28;20212;-68
2023/10/08 00:53:17;;;;;;;4.63;2.13;;;;;;;16.96;100.00;97061.22;5039119;28;20225;-68
2023/10/08 00:55:52;;;;;;;4.28;2.15;;;;;;;16.84;100.00;97054.78;5037948;28;20297;-68
2023/10/08 00:58:24;;;;;;;7.63;2.20;;;;;;;16.79;100.00;97051.88;5038404;28;20213;-68
2023/10/08 01:00:52;;;;;;;5.50;2.45;;;;;;;16.78;100.00;97053.72;5038402;28;20202;-68
2023/10/08 01:03:20;;;;;;;5.22;2.38;;;;;;;16.84;100.00;97049.47;5038607;28;20233;-68
2023/10/08 01:05:47;;;;;;;4.18;1.98;;;;;;;16.73;100.00;97050.84;5037109;28;20206;-68
2023/10/08 01:08:18;;;;;;;4.03;2.03;;;;;;;16.67;100.00;97050.78;5037979;28;20205;-68
2023/10/08 01:10:46;;;;;;;5.18;2.17;;;;;;;16.81;100.00;97057.84;5038240;28;20201;-67
2023/10/08 01:13:19;;;;;;;3.63;2.10;;;;;;;16.81;100.00;97056.00;5038473;28;20217;-68
2023/10/08 01:15:49;;;;;;;4.63;2.45;;;;;;;16.77;100.00;97052.09;5038464;28;20558;-68
2023/10/08 01:18:21;;;;;;;5.25;2.50;;;;;;;16.78;100.00;97048.41;5037673;28;20288;-68
2023/10/08 01:20:52;;;;;;;4.45;1.92;;;;;;;16.96;100.00;97047.91;5038137;28;20300;-68
2023/10/08 01:23:22;;;;;;;7.03;2.47;;;;;;;16.99;100.00;97045.66;5037796;28;20232;-68
2023/10/08 01:25:52;;;;;;;5.13;2.20;;;;;;;16.99;100.00;97045.66;5037744;28;20654;-67
2023/10/08 01:28:25;;;;;;;10.45;2.53;;;;;;;16.92;100.00;97041.34;5037016;28;20671;-68
2023/10/08 01:30:54;;;;;;;4.45;2.15;;;;;;;16.69;100.00;97044.25;5037568;28;20667;-68
2023/10/08 01:33:22;;;;;;;4.97;2.30;;;;;;;16.78;100.00;97036.97;5037863;28;20221;-68
2023/10/08 01:35:49;;;;;;;3.58;2.03;;;;;;;16.81;100.00;97036.56;5037560;28;20212;-68
2023/10/08 01:38:22;;;;;;;4.75;2.10;;;;;;;16.81;100.00;97033.91;5037175;28;20917;-68
2023/10/08 01:40:51;;;;;;;5.45;2.25;;;;;;;16.95;100.00;97032.94;5038136;28;20209;-67
2023/10/08 01:43:18;;;;;;;4.72;2.15;;;;;;;16.85;100.00;97030.66;5036844;28;20616;-68
2023/10/08 01:45:48;;;;;;;6.45;2.30;;;;;;;16.79;100.00;97038.56;5038126;28;20216;-68
2023/10/08 01:48:16;;;;;;;5.60;2.42;;;;;;;16.75;100.00;97040.00;5036044;28;20197;-68
2023/10/08 01:50:47;;;;;;;10.55;1.95;;;;;;;16.55;100.00;97041.72;5037225;28;20738;-68
2023/10/08 01:53:16;;;;;;;8.05;2.40;;;;;;;16.76;100.00;97044.31;5037249;28;21110;-67
2023/10/08 01:55:49;;;;;;;6.15;2.00;;;;;;;16.67;100.00;97037.50;5038015;28;20211;-68
2023/10/08 01:58:19;;;;;;;6.15;2.70;;;;;;;16.92;100.00;97041.34;5036537;28;20208;-68
2023/10/08 02:00:46;;;;;;;4.35;2.17;;;;;;;16.72;100.00;97035.88;5037176;28;20209;-68
2023/10/08 02:03:15;;;;;;;5.72;2.20;;;;;;;16.86;100.00;97034.94;5036954;28;20307;-67
2023/10/08 02:05:42;;;;;;;3.88;2.00;;;;;;;16.71;100.00;97039.59;5037450;28;20205;-68
2023/10/08 02:08:09;;;;;;;5.97;2.03;;;;;;;16.62;100.00;97032.75;5036849;28;20236;-68
2023/10/08 02:10:38;;;;;;;6.13;2.28;;;;;;;16.74;100.00;97033.84;5037792;28;20205;-67
2023/10/08 02:13:08;;;;;;;5.85;2.22;;;;;;;16.70;100.00;97039.75;5036618;28;20303;-68
2023/10/08 02:15:38;;;;;;;3.55;2.20;;;;;;;16.70;100.00;97034.44;5037328;28;20211;-68
2023/10/08 02:18:05;;;;;;;4.15;2.47;;;;;;;16.72;100.00;97045.72;5036461;28;20201;-68
2023/10/08 02:20:32;;;;;;;3.45;1.95;;;;;;;16.81;100.00;97044.53;5037332;28;20211;-68
2023/10/08 02:22:59;;;;;;;3.80;2.00;;;;;;;16.83;100.00;97040.66;5036601;28;20255;-68
2023/10/08 02:25:26;;;;;;;5.55;2.55;;;;;;;16.81;100.00;97040.03;5036915;28;20215;-68
2023/10/08 02:27:53;;;;;;;5.65;2.78;;;;;;;16.68;100.00;97033.81;5036156;28;20216;-68
2023/10/08 02:30:19;;;;;;;3.97;2.40;;;;;;;16.52;100.00;97031.44;5034748;28;20211;-68
2023/10/08 02:32:47;;;;;;;3.50;1.63;;;;;;;16.66;100.00;97038.50;5036760;28;20221;-68
2023/10/08 02:35:14;;;;;;;4.18;2.08;;;;;;;16.52;100.00;97040.25;5036496;28;20201;-68
2023/10/08 02:37:41;;;;;;;3.90;2.20;;;;;;;16.51;100.00;97035.94;5036096;28;20209;-68
2023/10/08 02:40:16;;;;;;;5.03;2.17;;;;;;;16.57;100.00;97034.34;5036157;28;20197;-68
2023/10/08 02:42:43;;;;;;;4.95;2.60;;;;;;;16.49;100.00;97032.66;5036760;28;20229;-68
2023/10/08 02:45:13;;;;;;;6.22;2.58;;;;;;;16.59;100.00;97027.00;5035621;28;20202;-68
2023/10/08 02:47:42;;;;;;;6.03;2.47;;;;;;;16.59;100.00;97032.31;5036404;28;20211;-68
2023/10/08 02:50:12;;;;;;;2.83;1.88;;;;;;;16.71;100.00;97031.59;5036409;28;20221;-68
2023/10/08 02:52:38;;;;;;;8.27;2.50;;;;;;;16.60;100.00;97026.00;5036129;28;20227;-68
2023/10/08 02:55:18;;;;;;;4.75;2.45;;;;;;;16.56;100.00;97024.75;5035963;28;20205;-68
2023/10/08 02:57:44;;;;;;;4.65;1.90;;;;;;;16.51;100.00;97020.00;5036260;28;20962;-68
2023/10/08 03:00:13;;;;;;;5.72;1.92;;;;;;;16.55;100.00;97026.56;5035898;28;20201;-68
2023/10/08 03:02:40;;;;;;;3.22;1.80;;;;;;;16.44;100.00;97022.81;5035957;28;20225;-68
2023/10/08 03:05:13;;;;;;;4.72;1.88;;;;;;;16.48;100.00;97017.72;5035589;28;20220;-68
2023/10/08 03:07:41;;;;;;;3.80;1.75;;;;;;;16.56;100.00;97022.09;5036887;28;20228;-68
2023/10/08 03:10:17;;;;;;;4.07;1.75;;;;;;;16.40;100.00;97021.53;5036045;28;20205;-68
2023/10/08 03:12:46;;;;;;;4.68;2.35;;;;;;;16.51;100.00;97019.19;5035772;28;20221;-67
2023/10/08 03:15:13;;;;;;;5.45;2.00;;;;;;;16.48;100.00;97024.88;5036058;28;20208;-67
2023/10/08 03:17:48;;;;;;;3.85;1.52;;;;;;;16.41;100.00;97024.00;5035968;28;20248;-67
2023/10/08 03:20:29;;;;;;;5.90;2.58;;;;;;;16.31;100.00;97018.19;5035767;28;20303;-68
2023/10/08 03:22:58;;;;;;;8.50;2.60;;;;;;;16.38;100.00;97032.38;5036321;28;20228;-68
2023/10/08 03:25:26;;;;;;;3.80;2.20;;;;;;;16.27;100.00;97024.94;5035605;28;20212;-68
2023/10/08 03:27:54;;;;;;;5.28;2.67;;;;;;;16.43;100.00;97027.28;5035116;28;20211;-67
2023/10/08 03:30:21;;;;;;;8.20;3.22;;;;;;;16.40;100.00;97027.69;5035958;28;20235;-68
2023/10/08 03:32:50;;;;;;;4.60;2.50;;;;;;;16.53;100.00;97017.13;5036143;28;20419;-68
2023/10/08 03:35:27;;;;;;;4.25;2.22;;;;;;;16.56;100.00;97014.09;5035722;28;20201;-68
2023/10/08 03:37:54;;;;;;;4.78;2.25;;;;;;;16.56;100.00;97022.09;5035301;28;20719;-68
2023/10/08 03:40:25;;;;;;;5.22;2.60;;;;;;;16.82;100.00;97019.56;5036098;28;20311;-67
2023/10/08 03:42:52;;;;;;;4.57;2.53;;;;;;;16.88;100.00;97018.75;5035560;28;20255;-67
2023/10/08 03:48:06;;;;;;;5.85;2.88;;;;;;;16.74;100.00;97017.06;5035012;28;20219;-67
2023/10/08 03:50:40;;;;;;;4.28;2.30;;;;;;;16.80;100.00;97022.44;5035309;28;20205;-68
2023/10/08 03:53:11;;;;;;;6.32;2.75;;;;;;;16.84;100.00;97021.03;5036114;28;20805;-67
2023/10/08 03:55:41;;;;;;;5.30;2.58;;;;;;;17.01;100.00;97010.88;5036514;28;20205;-68
2023/10/08 03:58:11;;;;;;;6.95;2.25;;;;;;;16.77;100.00;97024.66;5034252;28;20617;-68
2023/10/08 04:00:41;;;;;;;7.50;2.92;;;;;;;16.73;100.00;97018.09;5036047;28;20786;-68
2023/10/08 04:03:11;;;;;;;9.00;2.88;;;;;;;16.83;100.00;97013.22;5034460;28;21589;-68
2023/10/08 04:05:59;;;;;;;6.18;2.25;;;;;;;16.82;100.00;97019.56;5035441;28;20667;-68
2023/10/08 04:08:42;;;;;;;7.50;2.63;;;;;;;16.70;100.00;97018.47;5035664;28;20209;-68
2023/10/08 04:11:30;;;;;;;5.82;2.08;;;;;;;16.84;100.00;97020.19;5035086;28;20237;-68
2023/10/08 04:14:00;;;;;;;4.20;2.22;;;;;;;16.73;100.00;97023.41;5035058;28;20225;-68
2023/10/08 04:16:27;;;;;;;4.65;1.80;;;;;;;16.77;100.00;97022.00;5035529;28;20266;-68
2023/10/08 04:18:55;;;;;;;6.38;2.63;;;;;;;16.85;100.00;97021.84;5036202;28;20906;-68
2023/10/08 04:21:27;;;;;;;4.43;2.03;;;;;;;16.92;100.00;97020.03;5035189;28;20205;-68
2023/10/08 04:23:55;;;;;;;6.13;2.05;;;;;;;16.94;100.00;97023.31;5035114;28;20251;-68
2023/10/08 04:26:23;;;;;;;4.22;2.05;;;;;;;17.07;100.00;97028.69;5035775;28;20205;-68
2023/10/08 04:28:54;;;;;;;5.57;2.30;;;;;;;16.93;100.00;97025.16;5035082;28;20217;-68
2023/10/08 04:31:24;;;;;;;4.32;2.58;;;;;;;16.90;100.00;97024.72;5035753;28;20209;-68
2023/10/08 04:33:52;;;;;;;4.45;1.67;;;;;;;16.80;100.00;97026.91;5035761;28;20205;-68
2023/10/08 04:36:19;;;;;;;5.05;2.60;;;;;;;16.77;100.00;97027.31;5035084;28;20213;-68
2023/10/08 04:38:47;;;;;;;8.02;2.42;;;;;;;16.73;100.00;97021.56;5034713;28;20671;-67
2023/10/08 04:41:18;;;;;;;8.00;2.95;;;;;;;16.62;100.00;97021.28;5037967;28;20732;-68
2023/10/08 04:43:49;;;;;;;6.50;2.55;;;;;;;16.70;100.00;97029.09;5038167;28;20798;-68
2023/10/08 04:46:33;;;;;;;4.90;2.20;;;;;;;16.66;100.00;97022.53;5038368;28;20712;-67
2023/10/08 04:49:05;;;;;;;5.80;1.90;;;;;;;16.61;100.00;97014.31;5038409;28;20205;-68
2023/10/08 04:51:34;;;;;;;3.97;2.05;;;;;;;16.57;100.00;97008.56;5038716;28;20225;-68
2023/10/08 04:54:04;;;;;;;3.85;2.05;;;;;;;16.61;100.00;97009.81;5038136;28;20676;-68
2023/10/08 04:56:33;;;;;;;6.18;2.80;;;;;;;16.50;100.00;97006.88;5039070;28;20232;-68
2023/10/08 04:59:00;;;;;;;3.40;1.83;;;;;;;16.53;100.00;97009.16;5037765;28;20212;-67
2023/10/08 05:01:38;;;;;;;3.08;1.90;;;;;;;16.38;100.00;97003.13;5038319;28;20220;-68
2023/10/08 05:04:23;;;;;;;6.40;2.38;;;;;;;16.46;100.00;97005.63;5038066;28;20235;-67
2023/10/08 05:07:01;;;;;;;4.07;2.08;;;;;;;16.46;100.00;97015.44;5038253;28;20346;-68
2023/10/08 05:09:39;;;;;;;3.92;1.88;;;;;;;16.58;100.00;97020.03;5038044;28;20745;-68
2023/10/08 05:12:11;;;;;;;4.78;2.55;;;;;;;16.62;100.00;97026.59;5038523;28;20225;-67
2023/10/08 05:14:38;;;;;;;5.93;2.40;;;;;;;16.72;100.00;97029.75;5038796;28;20208;-68
2023/10/08 05:17:11;;;;;;;3.92;1.95;;;;;;;16.75;100.00;97026.69;5036773;28;20578;-67
2023/10/08 05:19:56;;;;;;;5.55;2.33;;;;;;;16.50;100.00;97034.31;5038850;28;20741;-68
2023/10/08 05:22:43;;;;;;;3.47;1.98;;;;;;;16.49;100.00;97031.84;5037773;28;20240;-68
2023/10/08 05:25:24;;;;;;;4.28;2.03;;;;;;;16.41;100.00;97032.00;5037254;28;21139;-67
2023/10/08 05:28:08;;;;;;;5.63;2.28;;;;;;;16.64;100.00;97029.91;5038421;28;20215;-68
2023/10/08 05:30:41;;;;;;;4.75;2.22;;;;;;;16.76;100.00;97036.31;5038490;28;20209;-68
2023/10/08 05:33:25;;;;;;;5.47;2.08;;;;;;;16.64;100.00;97037.88;5037394;28;20213;-68
2023/10/08 05:36:02;;;;;;;6.55;2.15;;;;;;;16.58;100.00;97042.13;5038385;28;20212;-68
2023/10/08 05:41:30;;;;;;;4.07;1.70;;;;;;;16.66;100.00;97051.81;5034940;28;20262;-68
2023/10/08 05:46:51;;;;;;;5.43;2.72;;;;;;;16.75;100.00;97061.28;5037670;28;20304;-68
2023/10/08 05:49:38;;;;;;;4.90;2.35;;;;;;;16.69;100.00;97065.56;5037184;28;20232;-68
2023/10/08 05:52:28;;;;;;;5.03;2.03;;;;;;;16.65;100.00;97063.50;5036566;28;20244;-68
2023/10/08 05:58:02;;;;;;;3.78;2.00;;;;;;;16.68;100.00;97073.75;5000770;28;20198;-68
2023/10/08 06:01:01;;;;;;;7.20;2.15;;;;;;;16.74;100.00;97084.44;5036745;28;20207;-68
2023/10/08 06:03:46;;;;;;;7.35;1.90;;;;;;;16.93;100.00;97085.56;5037361;28;20320;-68
2023/10/08 06:06:35;;;;;;;6.05;1.92;;;;;;;16.78;100.00;97092.84;5036692;28;20292;-68
2023/10/08 06:11:56;;;;;;;4.18;1.90;;;;;;;16.91;100.00;97095.59;5037667;28;20792;-68
2023/10/08 06:14:36;;;;;;;3.53;1.77;;;;;;;16.90;100.00;97085.97;5037077;28;20574;-68
2023/10/08 06:17:13;;;;;;;5.05;1.95;;;;;;;16.83;100.00;97088.59;5036628;28;20220;-68
2023/10/08 06:19:40;;;;;;;4.32;1.95;;;;;;;16.98;100.00;97075.16;5037276;28;20213;-68
2023/10/08 06:22:06;;;;;;;5.18;2.45;;;;;;;16.65;100.00;97074.94;5036971;28;20236;-68
2023/10/08 06:24:34;;;;;;;6.13;1.95;;;;;;;16.63;100.00;97081.47;5037573;28;20229;-68
2023/10/08 06:27:04;;;;;;;5.35;2.35;;;;;;;16.62;100.00;97082.50;5036584;28;20215;-68
2023/10/08 06:29:31;;;;;;;4.28;2.30;;;;;;;16.71;100.00;97083.97;5036927;28;20316;-68
2023/10/08 06:32:01;;;;;;;6.68;2.30;;;;;;;16.76;100.00;97086.88;5037310;28;20221;-68
2023/10/08 06:34:31;;;;;;;5.10;2.20;;;;;;;16.78;100.00;97092.84;5037160;28;20239;-68
2023/10/08 06:37:01;;;;;;;5.10;1.85;;;;;;;16.94;100.00;97085.38;5035797;28;20243;-68
2023/10/08 06:39:33;;;;;;;5.25;2.08;;;;;;;16.63;100.00;97097.44;5037518;28;20201;-68
2023/10/08 06:42:00;;;;;;;4.50;2.13;;;;;;;16.82;100.00;97096.78;5036358;28;20290;-68
2023/10/08 06:44:27;;;;;;;4.55;1.92;;;;;;;16.89;100.00;97089.63;5036660;28;20225;-68
2023/10/08 06:46:54;;;;;;;4.63;2.08;;;;;;;16.91;100.00;97098.25;5034201;28;20201;-68
2023/10/08 06:49:23;;;;;;;5.22;2.65;;;;;;;17.00;100.00;97089.09;5036553;28;20205;-68
2023/10/08 06:51:51;;;;;;;4.45;1.98;;;;;;;17.12;100.00;97097.16;5035132;28;20340;-68
2023/10/08 06:54:19;;;;;;;4.15;2.08;;;;;;;17.16;100.00;97089.63;5036032;28;20200;-68
2023/10/08 06:56:51;;;;;;;2.88;1.60;;;;;;;17.10;100.00;97091.19;5036762;28;20902;-68
2023/10/08 06:59:18;;;;;;;4.65;2.20;;;;;;;16.99;100.00;97090.13;5035538;28;20193;-69
2023/10/08 07:01:46;;;;;;;4.53;2.10;;;;;;;17.12;100.00;97089.19;5035954;28;20233;-69
2023/10/08 07:04:14;;;;;;;8.25;2.85;;;;;;;17.04;100.00;97083.19;5035925;28;20228;-68
2023/10/08 07:06:42;;;;;;;3.78;1.95;;;;;;;17.10;100.00;97091.19;5035561;28;20207;-68
2023/10/08 07:09:22;;;;;;;4.10;1.80;;;;;;;17.09;100.00;97089.59;5034114;28;20323;-68
2023/10/08 07:11:54;;;;;;;3.75;2.10;;;;;;;17.07;100.00;97087.28;5035498;28;20229;-69
2023/10/08 07:14:21;;;;;;;5.60;1.90;;;;;;;17.21;100.00;97087.19;5036418;28;20204;-68
2023/10/08 07:16:50;;;;;;;5.68;1.92;;;;;;;16.94;100.00;97087.22;5035331;28;21312;-69
2023/10/08 07:19:17;;;;;;;6.82;1.90;;;;;;;17.09;100.00;97083.41;5034844;28;20205;-68
2023/10/08 07:21:45;;;;;;;6.68;2.13;;;;;;;17.30;100.00;97081.50;5035556;28;20227;-69
2023/10/08 07:24:15;;;;;;;4.00;2.10;;;;;;;17.27;100.00;97079.25;5035809;28;20229;-69
2023/10/08 07:26:46;;;;;;;5.50;2.80;;;;;;;17.17;100.00;97078.75;5035781;28;20703;-68
2023/10/08 07:29:17;;;;;;;4.13;2.17;;;;;;;17.49;100.00;97082.59;5034888;28;20208;-68
2023/10/08 07:31:48;;;;;;;5.20;1.95;;;;;;;17.49;100.00;97086.13;5036414;28;20225;-68
2023/10/08 07:34:25;;;;;;;5.53;2.30;;;;;;;17.43;100.00;97081.56;5033511;28;21198;-68
2023/10/08 07:36:53;;;;;;;4.43;2.13;;;;;;;17.34;100.00;97088.09;5034406;28;20669;-68
2023/10/08 07:39:26;;;;;;;5.53;2.30;;;;;;;17.46;100.00;97094.47;5034254;28;21029;-68
2023/10/08 07:41:55;;;;;;;4.85;2.38;;;;;;;17.66;100.00;97095.41;5034939;28;20228;-68
2023/10/08 07:44:23;;;;;;;4.03;2.28;;;;;;;17.81;100.00;97090.75;5034954;28;20319;-68
2023/10/08 07:46:50;;;;;;;2.72;1.60;;;;;;;17.70;100.00;97095.81;5035174;28;20205;-68
2023/10/08 07:49:17;;;;;;;5.72;1.88;;;;;;;17.71;100.00;97102.81;5034312;28;20228;-68
2023/10/08 07:51:50;;;;;;;5.07;1.75;;;;;;;17.91;100.00;97101.84;5035287;28;20248;-68
2023/10/08 07:54:19;;;;;;;3.53;1.73;;;;;;;17.79;100.00;97101.59;5035174;28;20262;-68
2023/10/08 07:56:46;;;;;;;7.18;1.95;;;;;;;17.83;100.00;97100.19;5035265;28;20237;-68
2023/10/08 07:59:14;;;;;;;8.75;2.33;;;;;;;17.98;100.00;97102.66;5033448;28;20223;-68
2023/10/08 08:01:42;;;;;;;3.63;1.88;;;;;;;18.18;100.00;97106.25;5034655;28;20794;-68
2023/10/08 08:04:10;;;;;;;3.72;1.83;;;;;;;18.08;100.00;97106.59;5034094;28;20226;-68
2023/10/08 08:06:37;;;;;;;5.43;1.98;;;;;;;18.13;100.00;97104.13;5034512;28;20499;-68
2023/10/08 08:09:08;;;;;;;4.28;1.75;;;;;;;18.09;100.00;97105.56;5033317;28;20202;-69
2023/10/08 08:11:36;;;;;;;4.00;1.63;;;;;;;18.07;100.00;97106.78;5035286;28;20248;-68
2023/10/08 08:14:07;;;;;;;3.40;1.65;;;;;;;18.09;100.00;97105.56;5035868;28;20244;-68
2023/10/08 08:16:36;;;;;;;4.47;1.70;;;;;;;18.23;100.00;97101.94;5039185;28;20268;-68
2023/10/08 08:19:04;;;;;;;4.28;1.35;;;;;;;18.42;100.00;97104.63;5037692;28;20719;-68
2023/10/08 08:21:31;;;;;;;10.15;2.00;;;;;;;18.19;100.00;97105.19;5038228;28;20225;-69
2023/10/08 08:24:05;;;;;;;2.95;1.35;;;;;;;18.24;100.00;97097.41;5037906;28;20274;-68
2023/10/08 08:26:39;;;;;;;4.55;2.10;;;;;;;18.41;100.00;97099.50;5038723;28;20209;-69
2023/10/08 08:29:08;;;;;;;3.63;1.92;;;;;;;18.30;100.00;97107.28;5037003;28;20200;-68
2023/10/08 08:31:36;;;;;;;5.18;2.20;;;;;;;18.19;100.00;97098.03;5038127;28;20221;-68
2023/10/08 08:34:09;;;;;;;3.15;1.58;;;;;;;18.29;100.00;97100.28;5038132;28;20205;-68
2023/10/08 08:36:38;;;;;;;3.20;1.00;;;;;;;18.43;100.00;97098.25;5037503;28;21023;-69
2023/10/08 08:39:08;;;;;;;2.95;1.60;;;;;;;18.31;100.00;97096.41;5036659;28;20275;-68
2023/10/08 08:41:38;;;;;;;3.08;1.35;;;;;;;18.65;100.00;97102.38;5038776;28;20225;-68
2023/10/08 08:44:06;;;;;;;5.00;2.15;;;;;;;18.72;100.00;97099.69;5038770;28;20225;-68
2023/10/08 08:46:35;;;;;;;3.30;2.15;;;;;;;18.96;100.00;97092.69;5038565;28;20209;-69
2023/10/08 08:49:05;;;;;;;2.67;1.40;;;;;;;18.96;98.62;97106.06;5037598;28;20358;-69
2023/10/08 08:51:33;;;;;;;4.22;1.63;;;;;;;18.95;99.79;97109.75;5037780;28;20225;-69
2023/10/08 08:54:05;;;;;;;3.38;1.13;;;;;;;18.98;100.00;97109.31;5037114;28;20252;-69
2023/10/08 08:56:32;;;;;;;6.30;1.90;;;;;;;18.98;100.00;97108.50;5037941;28;20294;-69
2023/10/08 08:59:00;;;;;;;3.80;1.50;;;;;;;19.10;99.06;97101.53;5037776;28;20216;-69
2023/10/08 09:01:27;;;;;;;4.55;1.50;;;;;;;19.15;98.22;97094.50;5037661;28;20327;-69
2023/10/08 09:04:00;;;;;;;2.28;1.38;;;;;;;19.47;100.00;97098.13;5039033;28;20679;-69
2023/10/08 09:06:28;;;;;;;4.55;1.90;;;;;;;19.38;97.03;97104.75;5038183;28;21158;-69
2023/10/08 09:09:11;;;;;;;4.25;2.08;;;;;;;19.32;97.22;97119.78;5037637;28;20201;-69
2023/10/08 09:11:40;;;;;;;3.65;1.52;;;;;;;19.65;96.18;97128.50;5037701;28;20232;-69
2023/10/08 09:14:10;;;;;;;2.97;1.75;;;;;;;19.75;97.30;97135.03;5038500;28;20237;-69
2023/10/08 09:16:36;;;;;;;4.13;1.60;;;;;;;19.90;97.01;97138.28;5037401;28;21258;-69
2023/10/08 09:19:04;;;;;;;3.38;1.48;;;;;;;19.97;93.01;97136.44;5037885;28;20202;-69
2023/10/08 09:21:32;;;;;;;3.92;1.58;;;;;;;20.12;91.38;97134.28;5037957;28;20247;-69
2023/10/08 09:23:59;;;;;;;4.78;1.73;;;;;;;20.09;90.87;97152.66;5037985;28;20248;-69
2023/10/08 09:26:26;;;;;;;4.20;1.55;;;;;;;20.25;92.44;97161.81;5036265;28;20201;-69
2023/10/08 09:28:54;;;;;;;2.42;1.38;;;;;;;20.05;90.81;97173.66;5035676;28;20209;-69
2023/10/08 09:31:23;;;;;;;3.70;1.35;;;;;;;20.46;92.18;97171.38;5036167;28;20200;-69
2023/10/08 09:33:55;;;;;;;3.08;1.40;;;;;;;20.57;91.44;97173.34;5036733;28;20200;-69
2023/10/08 09:36:31;;;;;;;2.90;1.50;;;;;;;20.41;92.77;97166.66;5036898;28;20291;-69
2023/10/08 09:39:00;;;;;;;8.18;1.58;;;;;;;20.60;90.45;97187.13;5035664;28;20220;-69
2023/10/08 09:41:30;;;;;;;3.95;1.48;;;;;;;20.79;87.59;97186.22;5035431;28;21177;-68
2023/10/08 09:43:59;;;;;;;2.35;1.10;;;;;;;20.90;89.83;97180.97;5036157;28;20226;-69
2023/10/08 09:46:31;;;;;;;6.32;2.38;;;;;;;20.76;89.17;97185.81;5036415;28;20205;-69
2023/10/08 09:49:01;;;;;;;3.38;1.23;;;;;;;21.00;87.70;97185.81;5035705;28;20197;-69
2023/10/08 09:51:30;;;;;;;3.28;1.42;;;;;;;20.91;89.39;97187.97;5035362;28;20249;-69
2023/10/08 09:54:10;;;;;;;5.03;1.45;;;;;;;20.87;90.42;97189.47;5036916;28;20208;-69
2023/10/08 09:56:39;;;;;;;6.07;1.92;;;;;;;20.69;91.06;97180.47;5036064;28;20667;-69
2023/10/08 09:59:07;;;;;;;10.48;1.85;;;;;;;20.71;91.78;97180.25;5035935;28;21032;-69
2023/10/08 10:01:34;;;;;;;3.25;1.50;;;;;;;20.88;92.66;97169.63;5036159;28;20224;-69
2023/10/08 10:04:00;;;;;;;4.95;2.13;;;;;;;20.64;93.40;97176.81;5036649;28;20225;-68
2023/10/08 10:06:27;;;;;;;5.13;1.80;;;;;;;20.58;95.04;97175.00;5035791;28;20204;-69
2023/10/08 10:08:57;;;;;;;5.40;1.48;;;;;;;20.69;96.79;97171.63;5035805;28;20589;-69
2023/10/08 10:11:29;;;;;;;4.68;1.60;;;;;;;20.77;93.56;97180.22;5036072;28;20201;-69
2023/10/08 10:14:00;;;;;;;4.55;1.30;;;;;;;20.84;94.31;97176.47;5035671;28;20194;-69
2023/10/08 10:16:27;;;;;;;3.33;1.58;;;;;;;20.77;96.83;97174.06;5036121;28;20613;-69
2023/10/08 10:18:58;;;;;;;3.97;1.35;;;;;;;20.77;96.26;97171.38;5035468;28;20197;-69
2023/10/08 10:21:33;;;;;;;3.83;1.58;;;;;;;20.77;95.09;97171.38;5036737;28;20212;-69
2023/10/08 10:24:00;;;;;;;5.60;1.98;;;;;;;20.62;99.44;97176.19;5035499;28;20224;-69
2023/10/08 10:26:30;;;;;;;3.05;1.48;;;;;;;20.67;100.00;97174.53;5035577;28;20206;-69
2023/10/08 10:29:19;;;;;;;5.47;1.40;;;;;;;20.82;100.00;97161.66;5034187;28;20251;-69
2023/10/08 10:31:47;;;;;;;5.47;1.98;;;;;;;20.65;99.33;97160.53;5035524;28;20730;-69
2023/10/08 10:34:16;;;;;;;4.22;1.83;;;;;;;20.52;100.00;97165.13;5034709;28;20201;-68
2023/10/08 10:36:44;;;;;;;6.03;1.73;;;;;;;20.59;100.00;97160.56;5035904;28;20989;-69
2023/10/08 10:39:16;;;;;;;6.68;1.80;;;;;;;20.57;100.00;97162.63;5035052;28;20193;-69
2023/10/08 10:41:45;;;;;;;3.42;1.67;;;;;;;20.57;100.00;97165.31;5033927;28;20294;-69
2023/10/08 10:44:13;;;;;;;9.20;1.95;;;;;;;20.43;100.00;97171.78;5035480;28;20307;-69
2023/10/08 10:46:42;;;;;;;5.50;1.98;;;;;;;20.43;100.00;97169.09;5035159;28;20201;-69
2023/10/08 10:49:18;;;;;;;6.50;1.75;;;;;;;20.47;100.00;97173.03;5034862;28;21021;-69
2023/10/08 10:51:45;;;;;;;4.03;2.03;;;;;;;20.51;100.00;97168.88;5036195;28;20351;-69
2023/10/08 10:54:10;;;;;;;4.32;1.27;;;;;;;20.30;100.00;97172.69;5035020;28;20207;-69
2023/10/08 10:56:42;;;;;;;5.78;1.67;;;;;;;20.50;100.00;97170.72;5035458;28;20197;-69
2023/10/08 10:59:18;;;;;;;11.52;2.17;;;;;;;20.71;100.00;97170.38;5034464;28;20209;-69
2023/10/08 11:01:46;;;;;;;5.32;1.50;;;;;;;20.74;100.00;97172.66;5034736;28;20228;-69
2023/10/08 11:04:15;;;;;;;3.83;1.42;;;;;;;20.89;100.00;97183.88;5035238;28;20225;-69
2023/10/08 11:06:45;;;;;;;3.58;1.70;;;;;;;20.92;100.00;97176.19;5035294;28;20197;-69
2023/10/08 11:09:15;;;;;;;3.75;1.70;;;;;;;20.90;100.00;97166.72;5034835;28;20197;-69
2023/10/08 11:11:44;;;;;;;7.43;2.05;;;;;;;20.96;100.00;97172.06;5035346;28;20581;-68
2023/10/08 11:14:15;;;;;;;8.63;1.50;;;;;;;21.07;100.00;97165.97;5035050;28;20201;-68
2023/10/08 11:16:44;;;;;;;7.40;1.25;;;;;;;21.11;100.00;97161.81;5035043;28;20247;-69
2023/10/08 11:19:10;;;;;;;4.53;1.42;;;;;;;21.15;100.00;97171.06;5034817;28;20209;-69
2023/10/08 11:21:50;;;;;;;4.93;1.70;;;;;;;21.39;98.78;97170.22;5033616;28;20228;-69
2023/10/08 11:24:28;;;;;;;6.80;1.73;;;;;;;21.42;99.90;97169.75;5034375;28;20339;-69
2023/10/08 11:27:06;;;;;;;5.57;1.63;;;;;;;21.33;100.00;97170.28;5034186;28;20212;-69
2023/10/08 11:29:38;;;;;;;4.22;1.98;;;;;;;21.61;99.61;97168.78;5034517;28;20224;-69
2023/10/08 11:32:07;;;;;;;2.10;1.17;;;;;;;21.65;100.00;97164.59;5034559;28;20217;-69
2023/10/08 11:34:38;;;;;;;5.95;1.80;;;;;;;21.76;98.56;97161.19;5035228;28;20308;-69
2023/10/08 11:37:07;;;;;;;4.57;1.52;;;;;;;22.00;96.93;97155.72;5033235;28;20197;-69
2023/10/08 11:39:45;;;;;;;4.85;1.85;;;;;;;22.30;96.39;97154.75;5031910;28;20201;-69
2023/10/08 11:42:36;;;;;;;7.78;2.33;;;;;;;22.13;97.90;97153.72;5033445;28;20220;-68
2023/10/08 11:45:17;;;;;;;3.65;1.58;;;;;;;22.25;100.00;97149.19;5033794;28;20363;-69
2023/10/08 11:47:45;;;;;;;3.35;1.38;;;;;;;22.29;97.00;97146.91;5034132;28;20600;-69
2023/10/08 11:50:16;;;;;;;4.60;1.92;;;;;;;22.36;94.87;97144.94;5036963;28;20891;-69
2023/10/08 11:52:43;;;;;;;5.00;1.67;;;;;;;22.34;96.52;97142.50;5037800;28;20217;-69
2023/10/08 11:55:10;;;;;;;6.60;2.00;;;;;;;22.25;93.73;97146.50;5036446;28;20204;-69
2023/10/08 11:57:45;;;;;;;8.65;1.55;;;;;;;22.35;95.18;97146.81;5037573;28;20258;-69